Time;durP1;ratioP1;P1;durP2;ratioP2;P2;SDS_P1;SDS_P2;PMS_P1;PMS_P2;Temp;Humidity;BMP_temperature;BMP_pressure;BME280_temperature;BME280_humidity;BME280_pressure;Samples;Min_cycle;Max_cycle;Signal;HPM_P1;HPM_P2
2022/05/20 00:00:52;;;;;;;10.00;1.95;;;;;;;18.25;55.62;101459.50;2103638;28;20062;-71
2022/05/20 00:02:14;;;;;;;8.88;1.92;;;;;;;18.22;55.67;101455.09;2109802;28;20040;-70
2022/05/20 00:03:38;;;;;;;15.52;3.70;;;;;;;18.21;55.64;101453.31;2111970;28;20044;-70
2022/05/20 00:05:00;;;;;;;9.32;2.28;;;;;;;18.19;55.85;101462.22;2103778;28;20040;-70
2022/05/20 00:06:22;;;;;;;14.65;2.65;;;;;;;18.18;55.90;101457.78;2109103;28;20110;-71
2022/05/20 00:07:44;;;;;;;12.57;2.20;;;;;;;18.17;56.01;101454.22;2114980;28;20527;-70
2022/05/20 00:09:06;;;;;;;12.05;1.63;;;;;;;18.16;56.07;101454.22;2105295;28;20616;-70
2022/05/20 00:10:29;;;;;;;10.73;2.03;;;;;;;18.13;56.11;101452.44;2099976;28;20048;-70
2022/05/20 00:11:54;;;;;;;7.40;1.55;;;;;;;18.12;56.28;101449.75;2108591;28;20082;-70
2022/05/20 00:13:17;;;;;;;10.70;1.95;;;;;;;18.10;56.36;101456.94;2112270;28;20056;-70
2022/05/20 00:14:39;;;;;;;16.63;2.28;;;;;;;18.08;56.31;101446.22;2112115;28;20148;-71
2022/05/20 00:16:03;;;;;;;9.68;3.95;;;;;;;18.06;56.40;101452.47;2112083;28;20107;-70
2022/05/20 00:17:25;;;;;;;9.50;1.77;;;;;;;18.02;56.42;101448.94;2112069;28;20051;-70
2022/05/20 00:18:48;;;;;;;11.10;2.78;;;;;;;18.00;56.51;101455.16;2111907;28;20048;-70
2022/05/20 00:20:11;;;;;;;6.32;1.50;;;;;;;17.96;56.45;101443.63;2095360;28;20052;-70
2022/05/20 00:21:34;;;;;;;11.10;1.90;;;;;;;17.96;56.45;101453.41;2095292;28;20571;-70
2022/05/20 00:22:58;;;;;;;5.90;1.70;;;;;;;17.93;56.31;101448.97;2105483;28;20055;-70
2022/05/20 00:24:20;;;;;;;9.98;2.00;;;;;;;17.90;56.35;101451.66;2097495;28;20045;-69
2022/05/20 00:25:48;;;;;;;10.73;2.42;;;;;;;17.88;56.34;101438.28;2109106;28;20365;-69
2022/05/20 00:27:11;;;;;;;5.25;2.00;;;;;;;17.88;56.23;101442.75;2106482;28;20048;-70
2022/05/20 00:28:34;;;;;;;9.23;2.15;;;;;;;17.85;56.36;101440.97;2112066;28;20071;-70
2022/05/20 00:29:58;;;;;;;6.97;2.50;;;;;;;17.83;56.36;101433.88;2105843;28;20392;-70
2022/05/20 00:31:22;;;;;;;10.85;2.17;;;;;;;17.81;56.40;101433.88;2103902;28;20066;-70
2022/05/20 00:32:44;;;;;;;5.38;2.05;;;;;;;17.79;56.38;101430.31;2103849;28;20048;-71
2022/05/20 00:34:07;;;;;;;8.05;1.73;;;;;;;17.77;56.35;101433.88;2105364;28;20167;-70
2022/05/20 00:35:28;;;;;;;7.88;2.08;;;;;;;17.75;56.29;101433.88;2108532;28;20039;-70
2022/05/20 00:36:50;;;;;;;8.98;1.73;;;;;;;17.75;56.26;101435.66;2111870;28;20043;-70
2022/05/20 00:38:13;;;;;;;9.43;2.17;;;;;;;17.75;56.14;101424.97;2111882;28;20055;-70
2022/05/20 00:39:35;;;;;;;11.50;1.92;;;;;;;17.77;56.26;101428.56;2112151;28;20163;-70
2022/05/20 00:40:58;;;;;;;6.43;2.15;;;;;;;17.79;56.25;101429.41;2103298;28;20036;-70
2022/05/20 00:42:21;;;;;;;6.90;1.65;;;;;;;17.84;56.25;101430.31;2100880;28;20052;-70
2022/05/20 00:43:45;;;;;;;8.65;1.42;;;;;;;17.87;56.28;101430.28;2100915;28;20468;-70
2022/05/20 00:45:08;;;;;;;8.65;1.90;;;;;;;17.89;56.36;101423.16;2108655;28;20047;-70
2022/05/20 00:46:31;;;;;;;6.30;1.48;;;;;;;17.89;56.39;101426.72;2110875;28;20039;-70
2022/05/20 00:47:53;;;;;;;10.13;1.88;;;;;;;17.89;56.43;101425.81;2106098;28;20109;-71
2022/05/20 00:49:17;;;;;;;10.65;2.20;;;;;;;17.90;56.41;101424.94;2111734;28;20048;-69
2022/05/20 00:50:43;;;;;;;10.73;2.42;;;;;;;17.88;56.45;101418.69;2101099;28;20838;-70
2022/05/20 00:52:08;;;;;;;13.57;1.90;;;;;;;17.87;56.40;101420.47;2111665;28;20052;-70
2022/05/20 00:53:35;;;;;;;8.27;1.77;;;;;;;17.86;56.41;101417.81;2111379;28;20633;-70
2022/05/20 00:55:01;;;;;;;9.93;2.30;;;;;;;17.84;56.35;101420.50;2112470;28;20051;-70
2022/05/20 00:56:29;;;;;;;9.60;2.00;;;;;;;17.83;56.46;101426.75;2111673;28;20075;-70
2022/05/20 00:57:57;;;;;;;10.02;2.92;;;;;;;17.79;56.52;101411.59;2103433;28;20052;-69
2022/05/20 00:59:23;;;;;;;9.00;2.30;;;;;;;17.77;56.54;101412.53;2103520;28;20510;-70
2022/05/20 01:00:51;;;;;;;16.08;1.92;;;;;;;17.73;56.62;101406.28;2109744;28;20525;-70
2022/05/20 01:02:17;;;;;;;14.63;2.35;;;;;;;17.72;56.61;101409.84;2111891;28;20120;-69
2022/05/20 01:03:40;;;;;;;9.63;1.75;;;;;;;17.70;56.64;101392.06;2103291;28;20089;-70
2022/05/20 01:05:04;;;;;;;11.80;2.03;;;;;;;17.69;56.60;101400.97;2101898;28;20419;-70
2022/05/20 01:06:28;;;;;;;5.82;1.55;;;;;;;17.69;56.60;101393.84;2100468;28;20633;-69
2022/05/20 01:07:51;;;;;;;10.77;1.92;;;;;;;17.68;56.55;101402.75;2108004;28;20062;-68
2022/05/20 01:09:14;;;;;;;11.73;1.83;;;;;;;17.67;56.51;101392.97;2111275;28;20399;-68
2022/05/20 01:10:35;;;;;;;14.23;2.10;;;;;;;17.67;56.51;101408.09;2113697;28;20055;-70
2022/05/20 01:11:58;;;;;;;9.05;1.98;;;;;;;17.67;56.42;101397.41;2102612;28;20066;-70
2022/05/20 01:13:26;;;;;;;8.80;1.75;;;;;;;17.68;56.49;101407.19;2108800;28;20051;-70
2022/05/20 01:14:50;;;;;;;10.73;2.38;;;;;;;17.64;56.45;101402.78;2102575;28;20040;-70
2022/05/20 01:16:12;;;;;;;10.23;2.28;;;;;;;17.62;56.54;101400.09;2102236;28;20056;-69
2022/05/20 01:17:35;;;;;;;10.93;3.20;;;;;;;17.60;56.51;101393.84;2108464;28;20040;-69
2022/05/20 01:18:58;;;;;;;7.00;1.85;;;;;;;17.60;56.50;101385.81;2102925;28;20047;-69
2022/05/20 01:20:26;;;;;;;14.48;2.58;;;;;;;17.62;56.38;101393.88;2108582;28;20071;-70
2022/05/20 01:21:48;;;;;;;10.38;1.88;;;;;;;17.59;56.49;101389.38;2105246;28;20040;-69
2022/05/20 01:23:13;;;;;;;7.35;2.58;;;;;;;17.59;56.48;101386.72;2108503;28;20475;-69
2022/05/20 01:24:36;;;;;;;10.25;2.30;;;;;;;17.57;56.54;101387.63;2112793;28;20039;-69
2022/05/20 01:25:59;;;;;;;12.05;2.25;;;;;;;17.56;56.57;101381.41;2102512;28;20052;-69
2022/05/20 01:27:22;;;;;;;15.95;3.83;;;;;;;17.55;56.66;101384.94;2094464;28;20061;-69
2022/05/20 01:28:44;;;;;;;10.35;2.00;;;;;;;17.56;56.50;101388.50;2102616;28;20039;-69
2022/05/20 01:30:08;;;;;;;10.45;1.90;;;;;;;17.54;56.61;101392.06;2102596;28;20055;-69
2022/05/20 01:31:31;;;;;;;8.45;1.80;;;;;;;17.52;56.62;101380.50;2102858;28;20047;-69
2022/05/20 01:32:53;;;;;;;8.82;2.13;;;;;;;17.52;56.62;101382.31;2102494;28;20079;-70
2022/05/20 01:34:15;;;;;;;5.78;1.92;;;;;;;17.49;56.64;101379.63;2102523;28;20853;-69
2022/05/20 01:35:41;;;;;;;11.38;2.55;;;;;;;17.47;56.70;101384.97;2110708;28;20082;-70
2022/05/20 01:37:02;;;;;;;6.72;1.60;;;;;;;17.46;56.68;101371.63;2111295;28;20100;-69
2022/05/20 01:38:27;;;;;;;9.48;2.78;;;;;;;17.46;56.69;101372.50;2110890;28;20043;-69
2022/05/20 01:39:49;;;;;;;7.55;1.67;;;;;;;17.46;56.66;101382.28;2111403;28;20422;-70
2022/05/20 01:41:14;;;;;;;5.72;2.13;;;;;;;17.46;56.74;101380.53;2110626;28;20460;-69
2022/05/20 01:42:40;;;;;;;12.88;1.67;;;;;;;17.44;56.70;101376.09;2111095;28;20047;-68
2022/05/20 01:44:12;;;;;;;10.27;2.67;;;;;;;17.42;56.80;101376.09;2096825;28;20649;-69
2022/05/20 01:45:39;;;;;;;7.60;1.80;;;;;;;17.39;56.90;101369.88;2101967;28;20423;-69
2022/05/20 01:47:08;;;;;;;8.73;1.70;;;;;;;17.39;56.82;101380.56;2103070;28;20452;-69
2022/05/20 01:48:38;;;;;;;8.25;2.17;;;;;;;17.36;56.73;101376.09;2106215;28;20100;-70
2022/05/20 01:50:06;;;;;;;8.93;2.03;;;;;;;17.36;56.54;101380.56;2111957;28;20043;-70
2022/05/20 01:51:34;;;;;;;13.34;1.80;;;;;;;17.36;56.51;101377.88;2083383;28;1529967;-71
2022/05/20 01:53:02;;;;;;;10.07;1.88;;;;;;;17.34;56.50;101380.56;2103747;28;20139;-68
2022/05/20 01:54:35;;;;;;;11.48;2.33;;;;;;;17.35;56.59;101384.13;2097344;28;20044;-69
2022/05/20 01:56:06;;;;;;;11.18;2.55;;;;;;;17.33;56.68;101383.22;2100318;28;20086;-69
2022/05/20 01:57:34;;;;;;;16.42;3.58;;;;;;;17.33;56.69;101377.88;2110840;28;20048;-69
2022/05/20 01:59:03;;;;;;;7.47;2.85;;;;;;;17.33;56.67;101367.19;2111982;28;20071;-69
2022/05/20 02:00:29;;;;;;;13.95;3.47;;;;;;;17.31;56.72;101369.91;2112287;28;20092;-70
2022/05/20 02:01:56;;;;;;;11.70;2.85;;;;;;;17.29;56.70;101361.00;2105484;28;20052;-70
2022/05/20 02:03:23;;;;;;;8.27;1.90;;;;;;;17.30;56.66;101360.13;2109648;28;20255;-70
2022/05/20 02:04:50;;;;;;;3.38;1.80;;;;;;;17.29;56.65;101362.78;2105380;28;20051;-69
2022/05/20 02:06:19;;;;;;;9.45;2.00;;;;;;;17.28;56.68;101364.56;2110021;28;20054;-69
2022/05/20 02:07:46;;;;;;;11.90;2.40;;;;;;;17.25;56.64;101359.25;2105569;28;20048;-69
2022/05/20 02:09:14;;;;;;;8.45;2.47;;;;;;;17.24;56.70;101365.47;2103577;28;20064;-69
2022/05/20 02:10:43;;;;;;;8.68;2.13;;;;;;;17.25;56.78;101364.59;2094735;28;20044;-69
2022/05/20 02:12:06;;;;;;;9.80;2.00;;;;;;;17.24;56.87;101353.91;2101553;28;20470;-69
2022/05/20 02:13:34;;;;;;;11.43;2.42;;;;;;;17.25;57.00;101358.34;2103032;28;20055;-69
2022/05/20 02:15:01;;;;;;;10.93;1.95;;;;;;;17.24;57.08;101359.25;2095119;28;20537;-70
2022/05/20 02:16:28;;;;;;;6.97;1.88;;;;;;;17.25;57.14;101353.00;2109185;28;20126;-69
2022/05/20 02:17:56;;;;;;;11.95;2.67;;;;;;;17.26;57.36;101353.03;2111731;28;20044;-70
2022/05/20 02:19:24;;;;;;;9.85;2.40;;;;;;;17.26;57.51;101345.00;2111982;28;20047;-70
2022/05/20 02:20:49;;;;;;;6.07;1.80;;;;;;;17.25;57.73;101353.00;2113518;28;20475;-69
2022/05/20 02:22:16;;;;;;;8.23;1.50;;;;;;;17.22;57.95;101353.00;2105050;28;20051;-69
2022/05/20 02:23:44;;;;;;;7.78;2.13;;;;;;;17.21;57.91;101349.44;2101461;28;20040;-69
2022/05/20 02:25:10;;;;;;;5.50;1.90;;;;;;;17.20;57.89;101344.13;2105123;28;20369;-69
2022/05/20 02:26:42;;;;;;;11.85;2.85;;;;;;;17.22;57.79;101340.56;2109242;28;20453;-70
2022/05/20 02:28:10;;;;;;;7.95;2.53;;;;;;;17.21;57.68;101336.09;2097053;28;20048;-69
2022/05/20 02:29:49;;;;;;;7.93;2.55;;;;;;;17.23;57.50;101334.34;2101519;28;20059;-69
2022/05/20 02:31:16;;;;;;;11.13;2.20;;;;;;;17.23;57.50;101334.34;2095849;28;20060;-69
2022/05/20 02:32:45;;;;;;;9.93;2.30;;;;;;;17.23;57.50;101334.34;2098935;28;20535;-70
2022/05/20 02:34:08;;;;;;;13.57;2.40;;;;;;;17.22;57.46;101339.66;2103505;28;20048;-69
2022/05/20 02:35:30;;;;;;;16.10;2.65;;;;;;;17.22;57.51;101337.00;2102907;28;20100;-69
2022/05/20 02:36:53;;;;;;;16.60;3.40;;;;;;;17.21;57.55;101340.56;2096950;28;20056;-69
2022/05/20 02:38:17;;;;;;;11.52;3.08;;;;;;;17.20;57.55;101342.31;2091242;28;20110;-69
2022/05/20 02:39:38;;;;;;;6.00;2.55;;;;;;;17.20;57.47;101333.47;2100152;28;20040;-70
2022/05/20 02:41:01;;;;;;;10.50;2.17;;;;;;;17.22;57.49;101342.34;2110787;28;20058;-69
2022/05/20 02:42:26;;;;;;;13.02;3.53;;;;;;;17.23;57.44;101339.66;2105369;28;20051;-69
2022/05/20 02:43:49;;;;;;;12.02;2.40;;;;;;;17.23;57.35;101345.00;2102772;28;20060;-70
2022/05/20 02:45:14;;;;;;;13.80;2.88;;;;;;;17.24;57.28;101340.56;2102348;28;20476;-69
2022/05/20 02:46:38;;;;;;;13.70;2.47;;;;;;;17.22;57.38;101345.00;2110528;28;20135;-69
2022/05/20 02:48:00;;;;;;;13.02;2.30;;;;;;;17.18;57.37;101345.91;2106845;28;20075;-69
2022/05/20 02:49:23;;;;;;;11.32;2.70;;;;;;;17.17;57.46;101339.69;2104086;28;20105;-69
2022/05/20 02:50:45;;;;;;;10.20;2.50;;;;;;;17.14;57.56;101343.22;2110700;28;20451;-69
2022/05/20 02:52:09;;;;;;;8.43;1.83;;;;;;;17.14;57.58;101340.56;2110177;28;20890;-70
2022/05/20 02:53:32;;;;;;;7.68;2.10;;;;;;;17.17;57.62;101344.13;2111038;28;20187;-69
2022/05/20 02:54:54;;;;;;;8.55;2.00;;;;;;;17.16;57.58;101339.69;2102396;28;20040;-69
2022/05/20 02:56:17;;;;;;;10.40;1.95;;;;;;;17.15;57.55;101346.78;2101235;28;20052;-68
2022/05/20 02:57:42;;;;;;;12.50;2.42;;;;;;;17.14;57.48;101343.22;2096684;28;20117;-70
2022/05/20 03:04:12;;;;;;;16.58;2.90;;;;;;;17.11;57.72;101347.69;2096511;28;20593;-70
2022/05/20 03:05:35;;;;;;;6.60;2.00;;;;;;;17.11;57.81;101345.94;2102291;28;20044;-70
2022/05/20 03:06:57;;;;;;;18.95;3.67;;;;;;;17.14;57.84;101345.00;2108619;28;20046;-69
2022/05/20 03:08:21;;;;;;;19.27;3.55;;;;;;;17.15;57.88;101346.78;2113553;28;20052;-69
2022/05/20 03:09:42;;;;;;;9.63;2.25;;;;;;;17.13;57.96;101349.47;2110998;28;20050;-70
2022/05/20 03:11:05;;;;;;;11.40;2.45;;;;;;;17.12;58.16;101346.81;2102075;28;20056;-70
2022/05/20 03:12:28;;;;;;;13.07;2.85;;;;;;;17.13;58.25;101335.25;2108265;28;20146;-70
2022/05/20 03:13:53;;;;;;;10.15;2.65;;;;;;;17.15;58.33;101336.13;2103049;28;20044;-70
2022/05/20 03:15:17;;;;;;;11.10;3.35;;;;;;;17.18;58.45;101335.25;2099859;28;20070;-69
2022/05/20 03:16:40;;;;;;;14.43;2.70;;;;;;;17.16;58.54;101335.22;2108576;28;20071;-70
2022/05/20 03:18:03;;;;;;;11.88;2.25;;;;;;;17.17;58.65;101339.69;2111032;28;20040;-70
2022/05/20 03:19:30;;;;;;;12.27;2.70;;;;;;;17.17;58.70;101341.47;2102256;28;20574;-70
2022/05/20 03:20:52;;;;;;;11.80;2.55;;;;;;;17.17;58.67;101345.03;2109006;28;20044;-69
2022/05/20 03:22:14;;;;;;;9.43;2.38;;;;;;;17.18;58.65;101344.13;2110776;28;20048;-69
2022/05/20 03:23:36;;;;;;;8.73;2.42;;;;;;;17.18;58.62;101340.56;2101024;28;20071;-70
2022/05/20 03:24:58;;;;;;;13.77;2.17;;;;;;;17.17;58.60;101345.03;2104971;28;20047;-70
2022/05/20 03:26:22;;;;;;;13.43;4.43;;;;;;;17.18;58.50;101349.47;2102222;28;20111;-70
2022/05/20 03:27:44;;;;;;;12.82;2.65;;;;;;;17.20;58.42;101353.00;2102096;28;20102;-68
2022/05/20 03:29:09;;;;;;;6.85;2.42;;;;;;;17.21;58.21;101338.78;2094071;28;20558;-69
2022/05/20 03:30:32;;;;;;;10.38;2.55;;;;;;;17.21;58.10;101345.88;2099973;28;20052;-69
2022/05/20 03:31:54;;;;;;;12.43;2.70;;;;;;;17.22;57.85;101350.34;2102078;28;20040;-70
2022/05/20 03:33:17;;;;;;;7.90;2.25;;;;;;;17.25;57.74;101355.69;2106316;28;20122;-69
2022/05/20 03:34:40;;;;;;;10.20;1.90;;;;;;;17.27;57.51;101352.09;2110382;28;20065;-70
2022/05/20 03:36:02;;;;;;;5.05;2.17;;;;;;;17.29;57.41;101345.00;2110434;28;20170;-70
2022/05/20 03:37:25;;;;;;;9.82;2.45;;;;;;;17.31;57.16;101345.00;2102226;28;20124;-70
2022/05/20 03:38:48;;;;;;;9.13;1.95;;;;;;;17.32;57.01;101350.34;2107030;28;20044;-69
2022/05/20 03:40:10;;;;;;;7.60;1.90;;;;;;;17.34;56.88;101353.88;2110364;28;20140;-70
2022/05/20 03:41:33;;;;;;;9.45;1.92;;;;;;;17.35;56.85;101357.41;2101937;28;20398;-69
2022/05/20 03:42:57;;;;;;;9.40;2.70;;;;;;;17.35;56.81;101360.97;2105977;28;20040;-69
2022/05/20 03:44:22;;;;;;;11.90;2.88;;;;;;;17.38;56.75;101352.97;2110695;28;20043;-70
2022/05/20 03:45:44;;;;;;;9.48;1.95;;;;;;;17.39;56.80;101360.06;2110637;28;20046;-70
2022/05/20 03:47:07;;;;;;;6.45;1.85;;;;;;;17.42;56.76;101360.06;2110767;28;20055;-69
2022/05/20 03:48:29;;;;;;;7.28;3.17;;;;;;;17.46;56.85;101352.94;2109110;28;20048;-69
2022/05/20 03:49:51;;;;;;;10.10;2.50;;;;;;;17.51;56.73;101362.72;2102265;28;20066;-70
2022/05/20 03:51:15;;;;;;;13.18;2.50;;;;;;;17.58;56.79;101360.03;2107582;28;20452;-69
2022/05/20 03:52:37;;;;;;;7.90;2.90;;;;;;;17.63;56.76;101368.94;2110632;28;20055;-70
2022/05/20 03:53:59;;;;;;;14.20;2.78;;;;;;;17.68;56.68;101361.81;2113112;28;20482;-70
2022/05/20 03:55:23;;;;;;;12.85;2.92;;;;;;;17.69;56.54;101364.47;2101771;28;20061;-70
2022/05/20 03:56:46;;;;;;;8.82;1.85;;;;;;;17.74;56.55;101362.66;2108205;28;20057;-70
2022/05/20 03:58:09;;;;;;;8.27;2.72;;;;;;;17.77;56.43;101354.66;2100286;28;20048;-70
2022/05/20 03:59:36;;;;;;;11.82;2.20;;;;;;;17.86;56.30;101354.59;2098689;28;20054;-70
2022/05/20 04:02:37;;;;;;;9.43;2.03;;;;;;;17.98;55.96;101347.44;2098000;28;20056;-69
2022/05/20 04:03:59;;;;;;;9.88;2.03;;;;;;;17.99;56.07;101347.41;2113193;28;20048;-69
2022/05/20 04:05:21;;;;;;;8.88;1.95;;;;;;;18.11;55.97;101350.03;2109885;28;20059;-69
2022/05/20 04:06:43;;;;;;;15.85;2.30;;;;;;;18.32;55.84;101355.22;2110396;28;20159;-69
2022/05/20 04:08:06;;;;;;;6.00;2.35;;;;;;;18.53;55.59;101355.97;2102167;28;20036;-69
2022/05/20 04:09:29;;;;;;;7.88;2.58;;;;;;;18.73;55.40;101350.50;2098978;28;20063;-69
2022/05/20 04:10:53;;;;;;;7.55;1.98;;;;;;;18.86;54.94;101346.81;2101931;28;20055;-70
2022/05/20 04:12:24;;;;;;;9.57;1.75;;;;;;;18.97;54.63;101351.16;2102359;28;20052;-70
2022/05/20 04:13:46;;;;;;;8.63;2.37;;;;;;;18.98;54.29;101350.25;2111731;28;20631;-70
2022/05/20 04:15:13;;;;;;;10.85;2.35;;;;;;;19.00;54.24;101356.50;2102781;28;20434;-70
2022/05/20 04:16:36;;;;;;;10.68;2.40;;;;;;;19.10;54.22;101357.28;2109617;28;20107;-69
2022/05/20 04:17:57;;;;;;;11.88;3.65;;;;;;;19.15;53.74;101350.13;2110132;28;20048;-70
2022/05/20 04:19:19;;;;;;;7.60;2.15;;;;;;;19.23;53.71;101356.25;2110379;28;20451;-71
2022/05/20 04:20:42;;;;;;;10.95;2.05;;;;;;;19.43;53.50;101351.56;2113039;28;20055;-69
2022/05/20 04:22:06;;;;;;;8.82;2.00;;;;;;;19.70;53.23;101360.22;2112934;28;20457;-70
2022/05/20 04:23:29;;;;;;;11.55;2.10;;;;;;;19.96;52.95;101358.09;2101560;28;20048;-71
2022/05/20 04:24:51;;;;;;;14.55;1.98;;;;;;;20.25;52.44;101349.66;2101884;28;20108;-70
2022/05/20 04:26:14;;;;;;;10.30;2.53;;;;;;;20.48;51.83;101352.88;2101784;28;20055;-70
2022/05/20 04:27:36;;;;;;;7.55;1.98;;;;;;;20.58;51.62;101359.91;2085710;28;20043;-70
2022/05/20 04:28:59;;;;;;;7.55;1.88;;;;;;;20.69;51.01;101357.91;2105192;28;20040;-70
2022/05/20 04:30:23;;;;;;;4.05;1.45;;;;;;;20.87;50.85;101361.22;2105887;28;20104;-70
2022/05/20 04:31:48;;;;;;;10.20;2.03;;;;;;;21.02;50.86;101360.94;2110147;28;20122;-70
2022/05/20 04:33:13;;;;;;;8.40;2.00;;;;;;;20.90;50.36;101369.22;2112985;28;20051;-71
2022/05/20 04:34:35;;;;;;;11.50;2.55;;;;;;;20.89;50.66;101375.50;2110513;28;20048;-70
2022/05/20 04:35:57;;;;;;;9.50;1.95;;;;;;;21.07;50.11;101364.41;2101848;28;20127;-70
2022/05/20 04:37:22;;;;;;;6.32;1.95;;;;;;;21.17;49.78;101367.88;2101622;28;20056;-70
2022/05/20 04:38:45;;;;;;;10.77;2.10;;;;;;;21.20;49.46;101370.53;2109501;28;20048;-70
2022/05/20 04:40:08;;;;;;;8.65;1.75;;;;;;;21.46;49.19;101370.91;2118705;28;20137;-70
2022/05/20 04:47:00;;;;;;;7.82;1.90;;;;;;;21.98;47.52;101360.00;2064376;28;20046;-71
2022/05/20 04:48:23;;;;;;;10.77;2.70;;;;;;;21.76;47.60;101359.53;2071487;28;20050;-69
2022/05/20 04:49:46;;;;;;;6.38;1.92;;;;;;;21.76;47.69;101370.28;2070066;28;20049;-69
2022/05/20 04:51:08;;;;;;;18.40;2.75;;;;;;;21.85;47.44;101361.16;2070410;28;20076;-70
2022/05/20 04:52:31;;;;;;;13.07;2.70;;;;;;;21.68;47.47;101361.50;2105019;28;20474;-70
2022/05/20 04:55:32;;;;;;;12.60;1.92;;;;;;;21.34;47.74;101363.06;2105392;28;20052;-70
2022/05/20 04:56:55;;;;;;;11.10;2.13;;;;;;;21.32;47.93;101365.81;2109889;28;20522;-70
2022/05/20 04:58:17;;;;;;;7.63;2.72;;;;;;;21.72;47.32;101354.25;2113278;27;20047;-69
2022/05/20 04:59:40;;;;;;;5.20;1.58;;;;;;;22.19;46.50;101348.75;2105720;28;20040;-70
2022/05/20 05:01:02;;;;;;;9.98;2.03;;;;;;;22.57;45.51;101357.75;2103298;28;20056;-69
2022/05/20 05:02:27;;;;;;;6.03;1.83;;;;;;;22.94;44.50;101355.94;2111854;28;20831;-69
2022/05/20 05:03:50;;;;;;;9.43;2.75;;;;;;;23.09;44.24;101364.53;2097513;28;20060;-70
2022/05/20 05:05:15;;;;;;;8.20;2.10;;;;;;;23.02;44.23;101358.41;2092151;28;20461;-70
2022/05/20 05:06:38;;;;;;;13.20;2.25;;;;;;;22.53;44.93;101367.69;2101563;28;20047;-70
2022/05/20 05:08:00;;;;;;;5.55;1.73;;;;;;;22.19;45.76;101364.00;2111586;28;20112;-70
2022/05/20 05:09:23;;;;;;;6.43;1.98;;;;;;;22.44;45.15;101364.34;2105972;28;20594;-70
2022/05/20 05:10:46;;;;;;;8.13;2.17;;;;;;;22.28;45.00;101363.81;2111701;28;20105;-70
2022/05/20 05:12:09;;;;;;;8.38;3.03;;;;;;;22.50;45.09;101372.25;2105585;28;20044;-70
2022/05/20 05:13:31;;;;;;;9.65;2.00;;;;;;;23.26;43.67;101362.25;2103292;28;20497;-70
2022/05/20 05:14:55;;;;;;;5.55;1.83;;;;;;;23.93;42.41;101361.25;2103298;28;20059;-71
2022/05/20 05:16:16;;;;;;;7.07;1.92;;;;;;;24.45;41.14;101367.78;2095264;28;20040;-69
2022/05/20 05:19:19;;;;;;;9.57;2.20;;;;;;;23.60;41.82;101360.44;2113792;28;20063;-70
2022/05/20 05:20:44;;;;;;;10.10;1.90;;;;;;;23.07;42.75;101371.75;2111557;28;20069;-70
2022/05/20 05:22:08;;;;;;;6.85;2.47;;;;;;;22.71;43.45;101369.03;2112081;28;20048;-70
2022/05/20 05:23:31;;;;;;;7.10;1.90;;;;;;;22.30;44.19;101364.66;2103349;28;20132;-70
2022/05/20 05:24:53;;;;;;;11.70;2.22;;;;;;;22.04;44.70;101369.75;2103091;28;20549;-70
2022/05/20 05:26:16;;;;;;;10.02;2.60;;;;;;;21.96;44.93;101367.22;2112708;27;20097;-70
2022/05/20 05:27:38;;;;;;;8.05;2.08;;;;;;;21.80;45.24;101374.66;2097358;28;20667;-70
2022/05/20 05:29:01;;;;;;;8.02;2.47;;;;;;;21.75;45.51;101379.25;2108898;28;20059;-70
2022/05/20 05:30:24;;;;;;;7.40;2.00;;;;;;;21.64;45.78;101388.47;2114232;28;20044;-70
2022/05/20 05:31:48;;;;;;;8.55;2.92;;;;;;;21.36;46.28;101378.25;2105461;28;20098;-70
2022/05/20 05:33:13;;;;;;;12.40;2.42;;;;;;;21.61;46.19;101378.66;2107643;28;20074;-71
2022/05/20 05:34:36;;;;;;;7.88;1.92;;;;;;;22.67;44.64;101375.41;2105625;28;20140;-70
2022/05/20 05:35:59;;;;;;;5.72;2.00;;;;;;;23.26;43.00;101381.13;2092067;28;20040;-70
2022/05/20 05:37:21;;;;;;;11.13;2.33;;;;;;;23.02;43.27;101385.34;2100582;28;20149;-70
2022/05/20 05:38:44;;;;;;;5.95;1.98;;;;;;;22.76;43.74;101383.31;2103899;28;20434;-69
2022/05/20 05:40:08;;;;;;;6.05;1.55;;;;;;;23.30;42.70;101378.28;2098119;28;20610;-70
2022/05/20 05:41:31;;;;;;;9.95;2.47;;;;;;;23.28;42.14;101385.56;2108954;28;20040;-70
2022/05/20 05:42:55;;;;;;;6.55;1.88;;;;;;;23.23;42.22;101382.09;2097415;28;20056;-71
2022/05/20 05:44:17;;;;;;;8.60;2.20;;;;;;;22.91;42.60;101382.91;2100877;28;20047;-70
2022/05/20 05:45:39;;;;;;;7.88;1.73;;;;;;;22.48;43.13;101390.25;2111323;27;20081;-68
2022/05/20 05:47:02;;;;;;;7.50;1.88;;;;;;;22.26;43.87;101390.72;2098250;28;20065;-69
2022/05/20 05:48:27;;;;;;;11.05;2.25;;;;;;;23.08;42.82;101387.88;2099710;28;20093;-68
2022/05/20 05:49:49;;;;;;;9.40;1.88;;;;;;;24.01;41.13;101386.22;2100217;28;20044;-70
2022/05/20 05:51:12;;;;;;;11.00;2.72;;;;;;;24.33;40.69;101396.03;2101180;28;20484;-70
2022/05/20 05:52:35;;;;;;;7.65;2.40;;;;;;;24.90;39.58;101389.72;2104087;28;20337;-69
2022/05/20 05:53:58;;;;;;;9.23;1.75;;;;;;;24.97;39.28;101393.97;2108321;28;20055;-70
2022/05/20 05:55:20;;;;;;;9.52;1.92;;;;;;;24.48;40.13;101386.59;2105596;28;20094;-70
2022/05/20 05:56:42;;;;;;;7.95;2.42;;;;;;;24.50;40.39;101401.78;2101206;28;20125;-70
2022/05/20 05:58:04;;;;;;;5.65;1.83;;;;;;;24.85;39.64;101408.75;2094314;28;20048;-71
2022/05/20 05:59:27;;;;;;;5.07;1.98;;;;;;;25.27;38.99;101401.03;2101618;28;20044;-70
2022/05/20 06:00:49;;;;;;;5.88;1.70;;;;;;;25.57;38.26;101411.72;2106731;28;20071;-70
2022/05/20 06:02:12;;;;;;;12.73;2.60;;;;;;;25.05;38.64;101413.53;2102064;28;20052;-70
2022/05/20 06:03:38;;;;;;;9.10;2.25;;;;;;;24.72;39.53;101411.91;2110542;28;20054;-69
2022/05/20 06:05:01;;;;;;;9.02;3.58;;;;;;;25.21;38.85;101403.94;2107875;28;20051;-69
2022/05/20 06:06:23;;;;;;;10.52;1.92;;;;;;;25.23;38.22;101407.50;2115745;27;20047;-70
2022/05/20 06:07:46;;;;;;;8.05;2.08;;;;;;;24.73;38.79;101398.38;2105450;28;20048;-69
2022/05/20 06:09:08;;;;;;;7.13;1.80;;;;;;;24.57;39.07;101406.06;2105113;28;20086;-70
2022/05/20 06:10:31;;;;;;;7.60;2.03;;;;;;;24.24;39.53;101401.72;2105271;28;20553;-70
2022/05/20 06:11:54;;;;;;;14.20;1.98;;;;;;;23.98;39.81;101412.38;2102716;28;20515;-70
2022/05/20 06:13:24;;;;;;;9.02;2.03;;;;;;;24.06;39.76;101402.25;2109212;28;20146;-69
2022/05/20 06:14:46;;;;;;;8.68;1.80;;;;;;;24.19;39.59;101403.69;2109900;28;20526;-70
2022/05/20 06:16:17;;;;;;;10.18;1.92;;;;;;;24.49;39.44;101415.34;2108478;28;20064;-69
2022/05/20 06:17:43;;;;;;;9.98;1.98;;;;;;;24.57;39.49;101413.28;2111844;28;20032;-70
2022/05/20 06:19:15;;;;;;;9.63;1.83;;;;;;;25.07;38.59;101405.38;2111055;28;20057;-69
2022/05/20 06:20:39;;;;;;;8.90;1.88;;;;;;;25.55;37.70;101410.88;2103656;28;20044;-70
2022/05/20 06:22:02;;;;;;;10.40;2.10;;;;;;;25.50;37.84;101412.88;2108313;28;20431;-71
2022/05/20 06:23:25;;;;;;;6.47;1.98;;;;;;;25.29;38.01;101423.50;2100435;28;20044;-70
2022/05/20 06:24:47;;;;;;;8.57;1.95;;;;;;;25.44;37.79;101424.78;2107290;28;20179;-70
2022/05/20 06:26:10;;;;;;;6.90;1.80;;;;;;;25.27;37.79;101414.53;2107906;28;20040;-71
2022/05/20 06:27:33;;;;;;;6.25;1.70;;;;;;;24.89;38.44;101414.94;2109717;28;20901;-71
2022/05/20 06:28:56;;;;;;;5.88;1.73;;;;;;;24.62;39.02;101420.28;2102672;28;20048;-71
2022/05/20 06:30:21;;;;;;;6.68;1.60;;;;;;;24.51;39.30;101408.97;2107860;28;20069;-71
2022/05/20 06:31:44;;;;;;;11.20;2.10;;;;;;;24.80;38.74;101415.25;2110268;28;20445;-71
2022/05/20 06:33:06;;;;;;;13.25;2.53;;;;;;;25.00;38.24;101415.50;2110234;28;20055;-71
2022/05/20 06:39:48;;;;;;;4.75;1.35;;;;;;;24.71;38.49;101418.25;2103651;28;20133;-71
2022/05/20 06:39:52;;;;;;;9.43;3.13;;;;;;;24.05;39.25;101422.06;2103498;28;20082;-71
2022/05/20 06:41:17;;;;;;;5.07;1.63;;;;;;;24.09;39.39;101423.75;2113553;28;20040;-70
2022/05/20 06:42:40;;;;;;;7.80;1.98;;;;;;;23.97;39.56;101416.88;2102541;28;20535;-70
2022/05/20 06:44:03;;;;;;;5.70;1.70;;;;;;;24.17;39.59;101424.38;2110669;28;20048;-71
2022/05/20 06:45:25;;;;;;;4.38;1.52;;;;;;;24.74;38.90;101421.75;2101431;28;20052;-71
2022/05/20 06:46:48;;;;;;;11.43;2.85;;;;;;;25.36;37.82;101432.28;2108253;28;20043;-71
2022/05/20 06:48:10;;;;;;;6.95;1.52;;;;;;;25.85;37.26;101434.16;2102372;28;20504;-71